Time;durP1;ratioP1;P1;durP2;ratioP2;P2;SDS_P1;SDS_P2;PMS_P1;PMS_P2;Temp;Humidity;BMP_temperature;BMP_pressure;BME280_temperature;BME280_humidity;BME280_pressure;Samples;Min_cycle;Max_cycle;Signal;HPM_P1;HPM_P2
2023/08/05 00:00:14;;;;;;;2.88;2.67;;;22.80;57.20;;;;;;5035118;28;20216;-77
2023/08/05 00:02:41;;;;;;;2.75;2.55;;;22.80;57.20;;;;;;5034846;28;20208;-77
2023/08/05 00:05:09;;;;;;;3.30;3.00;;;22.80;57.20;;;;;;5034298;28;20223;-77
2023/08/05 00:07:36;;;;;;;3.38;3.08;;;22.80;57.20;;;;;;5033790;28;20212;-77
2023/08/05 00:10:03;;;;;;;3.00;2.70;;;22.80;57.30;;;;;;5033713;28;20207;-77
2023/08/05 00:12:30;;;;;;;2.80;2.60;;;22.80;57.30;;;;;;5033915;28;20199;-77
2023/08/05 00:14:59;;;;;;;3.13;2.90;;;22.80;57.30;;;;;;5033900;28;20655;-77
2023/08/05 00:17:26;;;;;;;3.05;2.85;;;22.80;57.40;;;;;;5034864;28;20205;-77
2023/08/05 00:19:53;;;;;;;2.75;2.55;;;22.80;57.40;;;;;;5034349;28;20202;-77
2023/08/05 00:22:20;;;;;;;3.13;2.92;;;22.80;57.30;;;;;;5161142;22;20327;-81
2023/08/05 00:24:48;;;;;;;3.05;2.80;;;22.70;57.30;;;;;;5031062;28;20232;-81
2023/08/05 00:27:15;;;;;;;3.20;2.90;;;22.70;57.30;;;;;;5030730;28;20213;-81
2023/08/05 00:29:45;;;;;;;3.00;2.80;;;22.70;57.40;;;;;;5015372;28;20201;-81
2023/08/05 00:32:14;;;;;;;2.72;2.53;;;22.70;57.30;;;;;;5014962;28;20316;-81
2023/08/05 00:34:41;;;;;;;3.03;2.70;;;22.70;57.40;;;;;;5031226;28;20243;-81
2023/08/05 00:37:08;;;;;;;2.80;2.60;;;22.70;57.30;;;;;;5015500;28;20189;-81
2023/08/05 00:39:35;;;;;;;3.33;3.08;;;22.70;57.40;;;;;;5017096;28;20225;-81
2023/08/05 00:42:02;;;;;;;3.20;2.90;;;22.70;57.40;;;;;;5015766;28;20230;-81
2023/08/05 00:44:29;;;;;;;3.00;2.80;;;22.70;57.40;;;;;;4998582;28;20189;-81
2023/08/05 00:46:57;;;;;;;3.90;2.80;;;22.70;57.40;;;;;;5014244;28;20218;-81
2023/08/05 00:49:27;;;;;;;3.10;2.80;;;22.70;57.40;;;;;;4997930;28;20205;-81
2023/08/05 00:51:54;;;;;;;2.80;2.53;;;22.70;57.50;;;;;;5014278;28;20228;-81
2023/08/05 00:54:21;;;;;;;3.17;2.88;;;22.60;58.00;;;;;;5014637;28;20197;-81
2023/08/05 00:56:49;;;;;;;3.65;2.97;;;22.70;57.50;;;;;;5014395;28;20201;-81
2023/08/05 00:59:16;;;;;;;2.90;2.70;;;22.60;57.30;;;;;;4997647;28;20203;-81
2023/08/05 01:01:43;;;;;;;3.03;2.83;;;22.70;57.50;;;;;;5014020;28;20220;-81
2023/08/05 01:04:11;;;;;;;3.50;3.10;;;22.60;57.40;;;;;;5031109;28;20200;-81
2023/08/05 01:06:39;;;;;;;3.10;2.85;;;22.70;57.50;;;;;;5014272;28;20263;-81
2023/08/05 01:09:06;;;;;;;3.03;2.83;;;22.70;57.50;;;;;;5015175;28;20617;-81
2023/08/05 01:11:34;;;;;;;2.83;2.63;;;22.60;57.50;;;;;;5015805;28;20311;-81
2023/08/05 01:14:01;;;;;;;2.97;2.67;;;22.60;57.50;;;;;;5016482;28;20197;-81
2023/08/05 01:16:28;;;;;;;2.92;2.70;;;22.60;57.50;;;;;;5014578;28;20208;-81
2023/08/05 01:18:55;;;;;;;3.00;2.80;;;22.60;57.60;;;;;;5014128;28;20193;-81
2023/08/05 01:21:26;;;;;;;3.10;2.90;;;22.60;57.60;;;;;;5013884;28;20228;-81
2023/08/05 01:24:00;;;;;;;2.80;2.60;;;22.60;57.60;;;;;;5015618;28;20248;-81
2023/08/05 01:26:29;;;;;;;2.88;2.67;;;22.60;57.60;;;;;;5014668;28;20200;-80
2023/08/05 01:28:56;;;;;;;2.80;2.60;;;22.60;57.60;;;;;;5017675;28;20296;-80
2023/08/05 01:31:23;;;;;;;2.78;2.55;;;22.60;57.60;;;;;;5016180;28;20223;-80
2023/08/05 01:33:50;;;;;;;2.78;2.58;;;22.50;57.60;;;;;;5014793;28;20212;-80
2023/08/05 01:36:21;;;;;;;2.90;2.70;;;22.50;57.50;;;;;;5013748;28;20200;-80
2023/08/05 01:38:48;;;;;;;3.03;2.83;;;22.50;57.60;;;;;;5013948;28;20264;-80
2023/08/05 01:41:15;;;;;;;3.00;2.80;;;22.60;57.60;;;;;;5013515;28;20275;-80
2023/08/05 01:43:44;;;;;;;2.80;2.60;;;22.60;57.70;;;;;;5013197;28;20258;-80
2023/08/05 01:46:11;;;;;;;3.10;2.90;;;22.50;57.50;;;;;;5013649;28;20204;-80
2023/08/05 01:48:39;;;;;;;3.20;2.90;;;22.50;57.60;;;;;;5013561;28;20224;-80
2023/08/05 01:51:06;;;;;;;2.85;2.65;;;22.50;57.60;;;;;;5013761;28;20288;-80
2023/08/05 01:53:34;;;;;;;2.90;2.70;;;22.50;57.70;;;;;;5016756;28;20193;-80
2023/08/05 01:56:01;;;;;;;2.85;2.58;;;22.50;57.70;;;;;;5016675;28;20228;-80
2023/08/05 01:58:28;;;;;;;3.00;2.80;;;22.50;57.70;;;;;;5032656;28;20192;-79
2023/08/05 02:00:57;;;;;;;3.30;3.00;;;22.50;57.70;;;;;;5032881;28;20220;-80
2023/08/05 02:03:24;;;;;;;2.92;2.60;;;22.40;57.60;;;;;;5022536;28;20200;-80
2023/08/05 02:05:51;;;;;;;2.92;2.72;;;22.50;57.80;;;;;;5020985;28;20239;-80
2023/08/05 02:08:19;;;;;;;2.78;2.58;;;22.50;57.80;;;;;;5021025;28;20213;-80
2023/08/05 02:10:47;;;;;;;2.60;2.40;;;22.50;57.80;;;;;;5021174;28;20300;-80
2023/08/05 02:13:15;;;;;;;2.80;2.60;;;22.50;57.80;;;;;;5020752;28;20197;-80
2023/08/05 02:15:43;;;;;;;2.90;2.70;;;22.40;57.80;;;;;;5020346;28;20658;-80
2023/08/05 02:18:11;;;;;;;2.88;2.67;;;22.40;57.70;;;;;;5019866;28;20199;-80
2023/08/05 02:20:40;;;;;;;2.60;2.40;;;22.40;57.80;;;;;;5019642;28;20249;-80
2023/08/05 02:23:07;;;;;;;2.40;2.20;;;22.40;57.80;;;;;;5020030;28;20212;-80
2023/08/05 02:25:34;;;;;;;2.90;2.70;;;22.40;57.80;;;;;;5018923;28;20647;-80
2023/08/05 02:28:01;;;;;;;2.90;2.70;;;22.40;57.80;;;;;;5016877;28;20224;-80
2023/08/05 02:30:30;;;;;;;2.70;2.50;;;22.40;57.80;;;;;;5017226;28;20223;-80
2023/08/05 02:32:57;;;;;;;2.85;2.65;;;22.40;57.70;;;;;;5001129;28;20656;-80
2023/08/05 02:35:25;;;;;;;2.42;2.22;;;22.40;57.80;;;;;;5017856;28;20248;-80
2023/08/05 02:37:52;;;;;;;3.00;2.80;;;22.40;57.80;;;;;;5001234;28;20258;-80
2023/08/05 02:40:19;;;;;;;2.90;2.70;;;22.40;57.80;;;;;;5017446;28;20216;-80
2023/08/05 02:42:46;;;;;;;2.70;2.50;;;22.40;57.80;;;;;;5017196;28;20193;-80
2023/08/05 02:45:13;;;;;;;2.67;2.50;;;22.40;57.80;;;;;;5017123;28;20246;-80
2023/08/05 02:47:41;;;;;;;2.78;2.58;;;22.40;57.80;;;;;;5017877;28;20233;-80
2023/08/05 02:50:09;;;;;;;2.95;2.75;;;22.40;57.80;;;;;;5017745;28;20255;-80
2023/08/05 02:52:38;;;;;;;2.97;2.63;;;22.40;57.80;;;;;;5017550;28;20197;-80
2023/08/05 02:55:06;;;;;;;2.80;2.60;;;22.40;57.80;;;;;;5016945;28;20292;-80
2023/08/05 02:57:33;;;;;;;2.92;2.63;;;22.40;57.90;;;;;;5016728;28;20215;-80
2023/08/05 03:00:00;;;;;;;2.80;2.60;;;22.30;57.80;;;;;;5016919;28;20198;-80
2023/08/05 03:02:28;;;;;;;3.05;2.72;;;22.30;57.80;;;;;;5016998;28;20208;-80
2023/08/05 03:04:55;;;;;;;3.15;2.95;;;22.30;57.80;;;;;;5016197;28;20208;-80
2023/08/05 03:07:22;;;;;;;2.90;2.70;;;22.30;57.80;;;;;;5016375;28;20672;-80
2023/08/05 03:09:52;;;;;;;3.03;2.83;;;22.40;58.00;;;;;;5017054;28;20224;-81
2023/08/05 03:12:20;;;;;;;3.05;2.72;;;22.30;57.90;;;;;;5017592;28;20189;-81
2023/08/05 03:14:48;;;;;;;2.92;2.72;;;22.30;57.90;;;;;;5017576;28;20224;-81
2023/08/05 03:17:15;;;;;;;2.63;2.42;;;22.30;57.90;;;;;;5016868;28;20197;-81
2023/08/05 03:19:42;;;;;;;2.75;2.55;;;22.30;57.80;;;;;;5016598;28;20289;-81
2023/08/05 03:22:09;;;;;;;2.88;2.67;;;22.40;57.80;;;;;;5016413;28;20313;-81
2023/08/05 03:24:41;;;;;;;2.80;2.60;;;22.40;57.70;;;;;;5017274;28;20192;-81
2023/08/05 03:27:09;;;;;;;2.90;2.70;;;22.50;57.70;;;;;;5016499;28;20256;-81
2023/08/05 03:29:38;;;;;;;2.70;2.50;;;22.50;57.60;;;;;;5017773;28;20608;-81
2023/08/05 03:32:06;;;;;;;2.80;2.60;;;22.50;57.40;;;;;;5015658;28;20680;-80
2023/08/05 03:34:34;;;;;;;2.60;2.40;;;22.60;57.30;;;;;;5015817;28;20207;-81
2023/08/05 03:37:02;;;;;;;2.78;2.58;;;22.60;57.20;;;;;;5015999;28;20232;-81
2023/08/05 03:39:30;;;;;;;3.00;2.80;;;22.70;57.00;;;;;;5016032;28;20213;-80
2023/08/05 03:41:56;;;;;;;2.55;2.35;;;22.70;56.90;;;;;;5016165;28;20212;-80
2023/08/05 03:44:25;;;;;;;2.80;2.60;;;22.70;56.80;;;;;;5016032;28;20204;-80
2023/08/05 03:46:53;;;;;;;2.70;2.50;;;22.80;56.80;;;;;;5015941;28;20197;-80
2023/08/05 03:49:20;;;;;;;2.60;2.40;;;22.80;56.80;;;;;;5016405;28;20223;-80
2023/08/05 03:51:47;;;;;;;2.83;2.63;;;22.80;56.80;;;;;;5015975;28;20684;-80
2023/08/05 03:54:15;;;;;;;2.60;2.40;;;22.80;56.80;;;;;;5016911;28;20201;-80
2023/08/05 03:56:42;;;;;;;2.83;2.63;;;22.80;56.80;;;;;;5016386;28;20250;-80
2023/08/05 03:59:09;;;;;;;2.97;2.75;;;22.90;56.80;;;;;;5016128;28;20200;-80
2023/08/05 04:01:38;;;;;;;2.75;2.55;;;22.90;56.70;;;;;;5034615;28;20711;-80
2023/08/05 04:04:05;;;;;;;3.47;2.40;;;22.90;56.70;;;;;;5001906;28;20196;-80
2023/08/05 04:06:32;;;;;;;2.65;2.45;;;22.90;56.50;;;;;;5017099;28;20201;-80
2023/08/05 04:08:59;;;;;;;2.70;2.50;;;22.90;56.40;;;;;;5018327;28;20217;-80
2023/08/05 04:11:26;;;;;;;2.83;2.63;;;22.90;56.40;;;;;;5017483;28;20231;-80
2023/08/05 04:13:57;;;;;;;2.55;2.35;;;23.00;56.40;;;;;;5016795;28;20200;-80
2023/08/05 04:16:24;;;;;;;2.85;2.50;;;23.00;56.30;;;;;;5016555;28;20197;-80
2023/08/05 04:18:52;;;;;;;2.70;2.50;;;23.00;56.20;;;;;;5016776;28;20269;-80
2023/08/05 04:21:23;;;;;;;2.70;2.20;;;23.00;56.30;;;;;;5016148;28;20216;-80
2023/08/05 04:23:50;;;;;;;2.83;2.60;;;23.00;56.20;;;;;;5000383;28;20192;-80
2023/08/05 04:26:17;;;;;;;2.72;2.53;;;23.00;56.20;;;;;;5016198;28;20296;-80
2023/08/05 04:28:44;;;;;;;2.83;2.63;;;23.00;56.20;;;;;;5014437;28;20216;-80
2023/08/05 04:31:11;;;;;;;2.53;2.33;;;23.00;56.20;;;;;;4999866;28;20232;-78
2023/08/05 04:33:39;;;;;;;2.53;2.33;;;23.00;56.20;;;;;;5015139;28;20207;-80
2023/08/05 04:36:07;;;;;;;2.75;2.55;;;22.90;56.70;;;;;;4999958;28;20842;-80
2023/08/05 04:38:34;;;;;;;3.15;2.85;;;23.00;56.20;;;;;;5015748;28;20652;-79
2023/08/05 04:41:01;;;;;;;3.00;2.80;;;23.00;55.50;;;;;;5015985;28;20230;-79
2023/08/05 04:43:28;;;;;;;2.85;2.65;;;23.00;55.60;;;;;;5015233;28;20200;-79
2023/08/05 04:45:55;;;;;;;3.35;3.05;;;22.90;55.50;;;;;;5014877;28;20197;-79
2023/08/05 04:48:22;;;;;;;3.38;3.08;;;22.90;55.10;;;;;;5014867;28;20691;-79
2023/08/05 04:50:49;;;;;;;4.75;3.10;;;22.80;55.10;;;;;;5015098;28;20217;-80
2023/08/05 04:53:17;;;;;;;3.15;2.85;;;22.80;54.90;;;;;;5014976;28;20208;-79
2023/08/05 04:55:44;;;;;;;3.85;3.30;;;22.70;54.90;;;;;;5015437;28;20208;-80
2023/08/05 04:58:11;;;;;;;4.50;3.10;;;22.70;54.90;;;;;;5016438;28;20193;-80
2023/08/05 05:00:39;;;;;;;3.17;2.80;;;22.60;54.90;;;;;;5016409;28;20221;-80
2023/08/05 05:03:07;;;;;;;4.53;3.22;;;22.60;54.90;;;;;;5015850;28;20201;-80
2023/08/05 05:05:35;;;;;;;4.63;3.00;;;22.60;54.90;;;;;;5015842;28;20653;-80
2023/08/05 05:08:02;;;;;;;4.20;2.85;;;22.50;54.90;;;;;;5015923;28;20217;-80
2023/08/05 05:10:31;;;;;;;3.75;3.10;;;22.50;54.90;;;;;;5015657;28;20692;-79
2023/08/05 05:12:59;;;;;;;3.65;2.92;;;22.50;54.90;;;;;;5015588;28;20196;-80
2023/08/05 05:15:26;;;;;;;3.40;3.08;;;22.50;55.10;;;;;;5015041;28;20211;-80
2023/08/05 05:17:53;;;;;;;4.47;3.03;;;22.40;54.90;;;;;;5015298;28;20189;-80
2023/08/05 05:20:20;;;;;;;3.00;2.72;;;22.40;55.00;;;;;;5014667;28;20225;-80
2023/08/05 05:22:47;;;;;;;3.53;3.00;;;22.40;55.40;;;;;;5014327;28;20220;-81
2023/08/05 05:25:14;;;;;;;3.90;2.67;;;22.40;55.40;;;;;;5014614;28;20207;-82
2023/08/05 05:27:42;;;;;;;3.80;2.67;;;22.40;55.30;;;;;;5014903;28;20208;-82
2023/08/05 05:30:10;;;;;;;3.35;2.72;;;22.40;55.30;;;;;;5015956;28;20197;-82
2023/08/05 05:32:37;;;;;;;3.40;2.70;;;22.40;55.30;;;;;;5014985;28;20201;-82
2023/08/05 05:35:05;;;;;;;3.42;2.47;;;22.40;55.40;;;;;;5013805;28;20208;-82
2023/08/05 05:37:31;;;;;;;2.92;2.60;;;22.40;55.40;;;;;;5013825;28;20197;-82
2023/08/05 05:39:58;;;;;;;2.95;2.75;;;22.40;55.40;;;;;;5013371;28;20200;-82
2023/08/05 05:42:25;;;;;;;2.72;2.53;;;22.40;55.40;;;;;;5013528;28;20204;-81
2023/08/05 05:44:54;;;;;;;3.88;2.75;;;22.40;55.40;;;;;;5013822;28;20197;-81
2023/08/05 05:47:21;;;;;;;3.13;2.60;;;22.40;55.40;;;;;;4997605;28;20287;-79
2023/08/05 05:49:48;;;;;;;2.42;2.22;;;22.40;55.50;;;;;;5013622;28;20680;-79
2023/08/05 05:52:16;;;;;;;3.15;2.65;;;22.40;55.50;;;;;;4997490;28;20566;-79
2023/08/05 05:54:44;;;;;;;3.60;2.40;;;22.50;55.60;;;;;;5012933;28;20204;-78
2023/08/05 05:57:11;;;;;;;2.63;2.42;;;22.50;55.60;;;;;;4997006;28;20287;-79
2023/08/05 05:59:39;;;;;;;3.80;2.95;;;22.50;55.60;;;;;;5013075;28;20188;-79
2023/08/05 06:02:08;;;;;;;3.03;2.70;;;22.50;55.60;;;;;;5013660;28;20246;-79
2023/08/05 06:04:36;;;;;;;4.25;2.40;;;22.50;55.60;;;;;;5012701;28;20287;-79
2023/08/05 06:07:03;;;;;;;2.78;2.55;;;22.50;55.60;;;;;;4996696;28;20280;-79
2023/08/05 06:09:31;;;;;;;2.67;2.47;;;22.50;55.60;;;;;;5013218;28;20267;-79
2023/08/05 06:11:58;;;;;;;2.22;2.08;;;22.60;55.60;;;;;;5013461;28;20315;-79
2023/08/05 06:14:26;;;;;;;3.17;2.35;;;22.60;55.40;;;;;;5018247;28;20220;-79
2023/08/05 06:16:53;;;;;;;2.58;2.38;;;22.70;55.40;;;;;;5015466;28;20304;-79
2023/08/05 06:19:21;;;;;;;3.08;2.50;;;22.70;55.20;;;;;;4980494;28;20200;-79
2023/08/05 06:21:48;;;;;;;2.70;2.50;;;22.80;55.00;;;;;;5059394;22;20228;-81
2023/08/05 06:24:16;;;;;;;2.75;2.50;;;22.90;55.00;;;;;;5016216;28;20254;-81
2023/08/05 06:26:43;;;;;;;3.67;2.13;;;22.90;54.80;;;;;;5032386;28;20200;-81
2023/08/05 06:29:10;;;;;;;2.47;2.28;;;23.00;54.90;;;;;;5032233;28;20212;-81
2023/08/05 06:31:38;;;;;;;2.72;2.30;;;23.00;54.80;;;;;;5016565;28;20247;-81
2023/08/05 06:34:04;;;;;;;2.60;2.40;;;23.00;54.60;;;;;;5032754;28;20266;-81
2023/08/05 06:36:33;;;;;;;2.80;2.38;;;23.10;54.50;;;;;;5032802;28;20677;-80
2023/08/05 06:39:00;;;;;;;2.88;2.50;;;23.10;54.30;;;;;;5032328;28;20200;-80
2023/08/05 06:41:27;;;;;;;2.35;2.10;;;23.20;54.30;;;;;;5034853;28;20594;-80
2023/08/05 06:43:54;;;;;;;2.78;2.42;;;23.30;54.10;;;;;;5037367;28;20184;-80
2023/08/05 06:46:21;;;;;;;2.20;2.00;;;23.30;54.00;;;;;;5019560;28;20654;-80
2023/08/05 06:48:48;;;;;;;2.70;2.28;;;23.30;53.80;;;;;;5035871;28;20234;-80
2023/08/05 06:51:15;;;;;;;2.80;2.40;;;23.40;53.90;;;;;;5036044;28;20698;-80
2023/08/05 06:53:44;;;;;;;2.72;2.53;;;23.40;53.70;;;;;;5019713;28;20211;-80
2023/08/05 06:56:11;;;;;;;2.45;2.08;;;23.50;53.50;;;;;;5035954;28;20196;-80
2023/08/05 06:58:38;;;;;;;2.30;2.10;;;23.50;53.50;;;;;;5036038;28;20196;-80
2023/08/05 07:01:05;;;;;;;2.33;2.13;;;23.60;53.40;;;;;;5036439;28;20219;-80
2023/08/05 07:03:32;;;;;;;2.35;2.15;;;23.60;53.10;;;;;;5036206;28;20207;-80
2023/08/05 07:05:59;;;;;;;2.83;2.60;;;23.60;53.10;;;;;;5036170;28;20196;-80
2023/08/05 07:08:27;;;;;;;2.08;1.90;;;23.70;53.10;;;;;;5036327;28;20658;-80
2023/08/05 07:10:56;;;;;;;2.95;2.30;;;23.70;53.00;;;;;;5036011;28;20223;-80
2023/08/05 07:13:23;;;;;;;2.60;2.40;;;23.80;52.90;;;;;;5035576;28;20255;-81
2023/08/05 07:15:50;;;;;;;2.40;2.20;;;23.80;52.90;;;;;;5035361;28;20200;-81
2023/08/05 07:18:17;;;;;;;2.45;2.20;;;23.90;52.70;;;;;;5035397;28;20208;-81
2023/08/05 07:20:46;;;;;;;2.85;2.33;;;24.00;52.50;;;;;;5035243;28;20596;-81
2023/08/05 07:23:13;;;;;;;2.38;2.03;;;24.10;52.50;;;;;;5035535;28;20235;-81
2023/08/05 07:25:40;;;;;;;2.55;2.10;;;24.20;52.20;;;;;;5035260;28;20204;-81
2023/08/05 07:28:08;;;;;;;3.28;2.28;;;24.20;51.80;;;;;;5018610;28;20615;-81
2023/08/05 07:30:35;;;;;;;2.42;2.22;;;24.30;51.60;;;;;;5035068;28;20238;-81
2023/08/05 07:33:04;;;;;;;2.47;2.10;;;24.50;51.60;;;;;;5018687;28;20200;-81
2023/08/05 07:35:32;;;;;;;2.72;2.20;;;24.50;51.40;;;;;;5034840;28;20203;-81
2023/08/05 07:38:00;;;;;;;2.30;2.10;;;24.50;51.20;;;;;;5035124;28;20196;-81
2023/08/05 07:40:29;;;;;;;3.10;2.50;;;24.60;51.20;;;;;;5035834;28;20578;-81
2023/08/05 07:42:56;;;;;;;2.28;2.08;;;24.60;51.20;;;;;;5034911;28;20223;-81
2023/08/05 07:45:26;;;;;;;2.08;1.88;;;24.50;51.10;;;;;;5036118;28;20218;-81
2023/08/05 07:47:55;;;;;;;2.20;2.00;;;24.50;51.20;;;;;;5034987;28;20218;-81
2023/08/05 07:50:22;;;;;;;2.00;1.85;;;24.50;51.20;;;;;;5038673;28;20228;-81
2023/08/05 07:52:50;;;;;;;2.10;1.90;;;24.50;51.30;;;;;;5039280;28;20262;-81
2023/08/05 07:55:18;;;;;;;3.17;2.10;;;24.40;51.20;;;;;;5041572;28;20199;-81
2023/08/05 07:57:46;;;;;;;2.33;2.13;;;24.50;51.30;;;;;;5058494;28;20200;-81
2023/08/05 08:00:14;;;;;;;2.55;2.22;;;24.50;51.30;;;;;;5050868;28;20327;-81
2023/08/05 08:02:44;;;;;;;2.20;2.00;;;24.50;51.20;;;;;;5039990;28;20204;-81
2023/08/05 08:05:13;;;;;;;2.38;2.00;;;24.50;51.10;;;;;;5039072;28;20560;-81
2023/08/05 08:07:45;;;;;;;2.40;2.20;;;24.60;50.90;;;;;;5038988;28;20200;-81
2023/08/05 08:10:12;;;;;;;2.30;2.10;;;24.70;50.70;;;;;;5037738;28;20228;-81
2023/08/05 08:12:39;;;;;;;3.58;2.20;;;24.80;50.50;;;;;;5038048;28;20215;-81
2023/08/05 08:15:07;;;;;;;2.30;2.10;;;24.90;50.20;;;;;;5036993;28;20200;-81
2023/08/05 08:17:34;;;;;;;2.05;1.85;;;25.00;50.30;;;;;;5034064;28;20204;-81
2023/08/05 08:20:03;;;;;;;1.90;1.80;;;25.10;49.80;;;;;;5034309;28;20639;-80
2023/08/05 08:22:30;;;;;;;1.95;1.85;;;25.20;49.70;;;;;;5033767;28;20258;-80
2023/08/05 08:24:56;;;;;;;2.28;2.08;;;25.30;49.40;;;;;;5034560;28;20249;-80
2023/08/05 08:27:24;;;;;;;2.72;2.17;;;25.40;49.20;;;;;;5034311;28;20205;-80
2023/08/05 08:29:51;;;;;;;2.05;1.95;;;25.50;49.20;;;;;;5017771;28;20215;-80
2023/08/05 08:32:18;;;;;;;2.22;1.83;;;25.60;48.90;;;;;;5034028;28;20200;-80
2023/08/05 08:34:45;;;;;;;3.33;2.22;;;25.80;48.60;;;;;;5018136;28;20204;-80
2023/08/05 08:37:14;;;;;;;2.50;2.03;;;26.00;48.30;;;;;;5033930;28;20203;-80
2023/08/05 08:39:41;;;;;;;2.10;1.90;;;26.10;47.90;;;;;;5033886;28;20226;-80
2023/08/05 08:42:08;;;;;;;2.00;1.80;;;26.20;47.70;;;;;;5034111;28;20219;-80
2023/08/05 08:44:35;;;;;;;2.65;2.00;;;26.30;47.50;;;;;;5034811;28;20665;-80
2023/08/05 08:47:02;;;;;;;2.22;2.00;;;26.40;47.30;;;;;;5033875;28;20195;-80
2023/08/05 08:49:29;;;;;;;2.67;2.03;;;26.50;47.10;;;;;;5033749;28;20231;-80
2023/08/05 08:51:56;;;;;;;2.28;1.88;;;26.50;46.90;;;;;;5034740;28;20211;-80
2023/08/05 08:54:26;;;;;;;2.40;2.00;;;26.50;46.90;;;;;;5041163;28;20191;-80
2023/08/05 08:56:53;;;;;;;2.03;1.92;;;26.40;47.10;;;;;;5035395;28;20195;-80
2023/08/05 08:59:20;;;;;;;2.35;2.15;;;26.30;47.30;;;;;;5034110;28;20662;-80
2023/08/05 09:01:47;;;;;;;2.15;1.95;;;26.20;47.60;;;;;;5035253;28;20237;-80
2023/08/05 09:04:14;;;;;;;1.98;1.83;;;26.10;47.90;;;;;;5033332;28;20199;-80
2023/08/05 09:06:41;;;;;;;2.22;2.03;;;26.10;48.00;;;;;;5034196;28;20199;-80
2023/08/05 09:09:08;;;;;;;2.10;1.90;;;26.00;48.10;;;;;;5034477;28;20223;-80
2023/08/05 09:11:36;;;;;;;3.08;1.80;;;26.00;48.00;;;;;;5034557;28;20219;-80
2023/08/05 09:14:04;;;;;;;1.85;1.75;;;26.00;48.10;;;;;;5034849;28;20200;-80
2023/08/05 09:16:31;;;;;;;2.47;2.10;;;25.90;48.10;;;;;;5034677;28;20294;-80
2023/08/05 09:19:00;;;;;;;2.20;2.00;;;25.90;48.20;;;;;;5035107;28;20298;-80
2023/08/05 09:21:28;;;;;;;1.88;1.77;;;25.90;48.40;;;;;;5033415;28;20265;-80
2023/08/05 09:23:55;;;;;;;1.92;1.83;;;25.80;48.50;;;;;;5033536;28;20667;-80
2023/08/05 09:26:28;;;;;;;2.22;2.00;;;25.80;48.50;;;;;;5032778;28;20203;-80
2023/08/05 09:28:57;;;;;;;2.85;1.90;;;25.80;48.60;;;;;;5032780;28;20604;-80
2023/08/05 09:31:24;;;;;;;2.10;1.90;;;25.90;48.40;;;;;;5033033;28;20232;-80
2023/08/05 09:33:51;;;;;;;1.85;1.75;;;26.00;48.20;;;;;;5032853;28;20206;-81
2023/08/05 09:36:21;;;;;;;2.00;1.90;;;26.10;47.80;;;;;;5032823;28;20240;-81
2023/08/05 09:38:59;;;;;;;2.55;1.90;;;26.30;47.50;;;;;;5032767;28;20187;-81
2023/08/05 09:41:28;;;;;;;2.03;1.67;;;26.40;47.20;;;;;;5033115;28;20214;-81
2023/08/05 09:43:55;;;;;;;1.95;1.85;;;26.50;47.00;;;;;;5033527;28;20534;-81
2023/08/05 09:46:25;;;;;;;1.88;1.75;;;26.60;46.80;;;;;;5032990;28;20241;-81
2023/08/05 09:48:52;;;;;;;2.20;2.00;;;26.60;46.60;;;;;;5032624;28;20208;-81
2023/08/05 09:51:19;;;;;;;2.00;1.80;;;26.60;46.50;;;;;;5032508;28;20592;-81
2023/08/05 09:53:49;;;;;;;2.15;1.90;;;26.60;46.50;;;;;;5032994;28;20203;-81
2023/08/05 09:56:20;;;;;;;1.92;1.77;;;26.60;46.60;;;;;;5033121;28;20545;-81
2023/08/05 09:58:47;;;;;;;2.42;1.95;;;26.50;46.60;;;;;;5016908;28;20286;-81
2023/08/05 10:01:14;;;;;;;3.28;1.90;;;26.50;46.80;;;;;;5032543;28;20208;-81
2023/08/05 10:03:42;;;;;;;2.25;2.00;;;26.40;47.00;;;;;;5032555;28;20191;-81
2023/08/05 10:06:11;;;;;;;3.88;2.78;;;26.20;47.20;;;;;;5016442;28;20245;-81
2023/08/05 10:08:40;;;;;;;2.20;2.00;;;26.20;47.50;;;;;;5032887;28;20203;-81
2023/08/05 10:11:07;;;;;;;2.10;1.92;;;26.10;47.50;;;;;;5032707;28;20318;-81
2023/08/05 10:13:38;;;;;;;2.30;2.10;;;26.00;47.60;;;;;;5032803;28;20250;-81
2023/08/05 10:16:06;;;;;;;2.20;2.00;;;26.00;47.80;;;;;;5035135;28;20226;-81
2023/08/05 10:18:34;;;;;;;2.15;1.95;;;25.90;47.80;;;;;;5036634;28;20212;-81
2023/08/05 10:21:04;;;;;;;2.00;1.90;;;25.80;47.80;;;;;;5020012;28;20234;-81
2023/08/05 10:23:33;;;;;;;3.25;1.85;;;25.80;47.90;;;;;;5037374;28;20558;-79
2023/08/05 10:26:01;;;;;;;2.42;1.98;;;25.80;48.00;;;;;;5037082;28;20568;-80
2023/08/05 10:28:42;;;;;;;2.30;2.10;;;25.80;48.00;;;;;;5037038;28;20195;-80
2023/08/05 10:31:24;;;;;;;2.20;1.80;;;25.80;48.00;;;;;;5036769;28;20223;-80
2023/08/05 10:34:10;;;;;;;2.00;1.90;;;25.80;48.00;;;;;;5036929;28;20612;-80
2023/08/05 10:36:43;;;;;;;1.95;1.85;;;25.80;48.00;;;;;;5036943;28;20594;-80
2023/08/05 10:39:40;;;;;;;1.90;1.80;;;25.80;48.10;;;;;;5037600;28;20206;-80
2023/08/05 10:42:21;;;;;;;1.90;1.80;;;25.80;48.10;;;;;;5030780;28;20678;-80
2023/08/05 10:44:51;;;;;;;2.15;1.95;;;25.70;48.30;;;;;;5037515;28;20199;-80
2023/08/05 10:47:22;;;;;;;1.95;1.83;;;25.70;48.40;;;;;;5038091;28;20192;-80
2023/08/05 10:49:51;;;;;;;2.00;1.90;;;25.60;48.30;;;;;;5037185;28;20211;-80
2023/08/05 10:52:20;;;;;;;2.00;1.90;;;25.60;48.50;;;;;;5037769;28;20203;-80
2023/08/05 10:54:47;;;;;;;2.10;1.90;;;25.50;48.60;;;;;;5036664;28;20215;-80
2023/08/05 10:57:49;;;;;;;2.17;1.98;;;25.50;48.60;;;;;;5036430;28;20667;-80
2023/08/05 11:00:20;;;;;;;2.28;1.92;;;25.40;48.70;;;;;;5022045;28;20329;-80
2023/08/05 11:02:49;;;;;;;1.88;1.70;;;25.40;48.80;;;;;;5036202;28;20203;-80
2023/08/05 11:05:16;;;;;;;1.98;1.88;;;25.40;48.80;;;;;;5019855;28;20322;-80
2023/08/05 11:07:45;;;;;;;1.70;1.60;;;25.40;49.00;;;;;;5035496;28;20745;-80
2023/08/05 11:10:13;;;;;;;2.03;1.85;;;25.30;49.10;;;;;;5035735;28;20317;-80
2023/08/05 11:12:40;;;;;;;2.15;1.75;;;25.20;49.20;;;;;;5036255;28;20203;-80
2023/08/05 11:15:08;;;;;;;1.80;1.67;;;25.20;49.20;;;;;;5035368;28;20681;-80
2023/08/05 11:17:36;;;;;;;2.80;1.73;;;25.20;49.20;;;;;;5018947;28;20222;-80
2023/08/05 11:20:04;;;;;;;3.10;1.85;;;25.20;49.20;;;;;;5035415;28;20545;-80
2023/08/05 11:22:32;;;;;;;2.15;1.95;;;25.20;49.20;;;;;;5037000;28;20269;-80
2023/08/05 11:25:02;;;;;;;1.88;1.67;;;25.20;49.20;;;;;;5035378;28;20277;-81
2023/08/05 11:27:30;;;;;;;3.03;1.77;;;25.20;49.20;;;;;;5035589;28;20192;-81
2023/08/05 11:29:57;;;;;;;2.10;1.90;;;25.20;49.10;;;;;;5035206;28;20220;-81
2023/08/05 11:32:24;;;;;;;2.08;1.88;;;25.20;49.00;;;;;;5035415;28;20192;-81
2023/08/05 11:34:51;;;;;;;2.08;1.80;;;25.30;49.00;;;;;;5035260;28;20200;-81
2023/08/05 11:37:23;;;;;;;1.70;1.60;;;25.20;48.90;;;;;;5035685;28;20199;-81
2023/08/05 11:39:51;;;;;;;1.70;1.60;;;25.20;48.80;;;;;;5037503;28;20639;-81
2023/08/05 11:42:19;;;;;;;1.80;1.60;;;25.30;48.80;;;;;;5037819;28;20192;-81
2023/08/05 11:44:46;;;;;;;1.80;1.70;;;25.30;48.70;;;;;;5037302;28;20226;-81
2023/08/05 11:47:14;;;;;;;1.80;1.70;;;25.30;48.70;;;;;;5036570;28;20222;-81
2023/08/05 11:49:47;;;;;;;2.35;1.83;;;25.20;48.70;;;;;;5035453;28;20204;-80
2023/08/05 11:52:15;;;;;;;1.90;1.80;;;25.20;49.00;;;;;;5034973;28;20693;-80
2023/08/05 11:54:43;;;;;;;2.15;1.75;;;25.10;48.40;;;;;;5019035;28;20278;-80
2023/08/05 11:57:20;;;;;;;2.03;1.85;;;25.20;48.40;;;;;;5035052;28;20196;-80
2023/08/05 11:59:47;;;;;;;2.50;1.98;;;25.20;48.20;;;;;;5034568;28;20204;-80
2023/08/05 12:02:15;;;;;;;2.70;1.80;;;25.20;48.00;;;;;;5035010;28;20254;-81
2023/08/05 12:04:43;;;;;;;1.92;1.80;;;25.20;47.90;;;;;;5034909;28;20202;-81
2023/08/05 12:07:14;;;;;;;2.00;1.80;;;25.10;48.50;;;;;;5035186;28;20203;-81
2023/08/05 12:09:40;;;;;;;2.72;1.75;;;25.20;48.10;;;;;;5038649;28;20199;-81
2023/08/05 12:12:12;;;;;;;2.05;1.92;;;25.20;48.30;;;;;;5040839;28;20590;-81
2023/08/05 12:14:41;;;;;;;2.20;2.00;;;25.20;48.40;;;;;;5042179;28;20195;-81
2023/08/05 12:17:08;;;;;;;2.05;1.90;;;25.20;48.30;;;;;;5043044;28;20196;-81
2023/08/05 12:19:35;;;;;;;2.42;2.03;;;25.30;48.50;;;;;;5042578;28;20620;-81
2023/08/05 12:22:02;;;;;;;2.42;2.10;;;25.40;48.60;;;;;;5074131;22;20231;-80
2023/08/05 12:24:29;;;;;;;2.53;1.85;;;25.30;48.20;;;;;;5016526;28;20295;-79
2023/08/05 12:26:56;;;;;;;2.15;1.98;;;25.40;47.60;;;;;;5016289;28;20333;-79
2023/08/05 12:29:23;;;;;;;2.10;1.88;;;25.40;46.60;;;;;;5016555;28;20295;-79
2023/08/05 12:31:52;;;;;;;2.55;1.90;;;25.40;46.20;;;;;;5032890;28;20224;-79
2023/08/05 12:34:20;;;;;;;2.67;2.03;;;25.40;46.20;;;;;;5033076;28;20200;-79
2023/08/05 12:36:46;;;;;;;2.63;2.25;;;25.30;45.80;;;;;;5015608;28;20226;-79
2023/08/05 12:39:14;;;;;;;3.25;2.30;;;25.40;46.10;;;;;;5015764;28;20258;-79
2023/08/05 12:41:41;;;;;;;2.58;2.10;;;25.40;46.90;;;;;;5015929;28;20204;-79
2023/08/05 12:44:08;;;;;;;1.98;1.88;;;25.40;46.80;;;;;;5015916;28;20226;-79
2023/08/05 12:46:35;;;;;;;2.00;1.80;;;25.40;47.10;;;;;;5016486;28;20196;-79
2023/08/05 12:49:03;;;;;;;1.95;1.85;;;25.40;47.90;;;;;;5015689;28;20200;-79
2023/08/05 12:51:31;;;;;;;2.03;1.92;;;25.40;47.40;;;;;;5015945;28;20231;-79